sensor_id;sensor_type;location;lat;lon;timestamp;P1;durP1;ratioP1;P2;durP2;ratioP2
10894;SDS011;5500;49.886;8.074;2023-06-22T00:02:26;5.40;;;4.60;;
10894;SDS011;5500;49.886;8.074;2023-06-22T00:04:54;5.77;;;5.23;;
10894;SDS011;5500;49.886;8.074;2023-06-22T00:07:21;7.03;;;5.10;;
10894;SDS011;5500;49.886;8.074;2023-06-22T00:09:50;5.53;;;5.03;;
10894;SDS011;5500;49.886;8.074;2023-06-22T00:12:17;5.73;;;5.00;;
10894;SDS011;5500;49.886;8.074;2023-06-22T00:14:46;5.23;;;4.73;;
10894;SDS011;5500;49.886;8.074;2023-06-22T00:17:14;6.27;;;5.10;;
10894;SDS011;5500;49.886;8.074;2023-06-22T00:19:42;5.70;;;5.10;;
10894;SDS011;5500;49.886;8.074;2023-06-22T00:22:09;7.23;;;5.47;;
10894;SDS011;5500;49.886;8.074;2023-06-22T00:24:37;5.80;;;5.30;;
10894;SDS011;5500;49.886;8.074;2023-06-22T00:27:05;6.13;;;5.30;;
10894;SDS011;5500;49.886;8.074;2023-06-22T00:29:32;5.47;;;4.93;;
10894;SDS011;5500;49.886;8.074;2023-06-22T00:32:02;5.33;;;4.83;;
10894;SDS011;5500;49.886;8.074;2023-06-22T00:34:30;6.10;;;5.00;;
10894;SDS011;5500;49.886;8.074;2023-06-22T00:36:58;8.00;;;5.73;;
10894;SDS011;5500;49.886;8.074;2023-06-22T00:39:26;7.13;;;5.97;;
10894;SDS011;5500;49.886;8.074;2023-06-22T00:41:54;6.50;;;5.87;;
10894;SDS011;5500;49.886;8.074;2023-06-22T00:44:22;8.13;;;5.63;;
10894;SDS011;5500;49.886;8.074;2023-06-22T00:46:49;9.60;;;6.47;;
10894;SDS011;5500;49.886;8.074;2023-06-22T00:49:18;7.00;;;6.40;;
10894;SDS011;5500;49.886;8.074;2023-06-22T00:51:46;10.53;;;7.07;;
10894;SDS011;5500;49.886;8.074;2023-06-22T00:54:15;7.70;;;6.90;;
10894;SDS011;5500;49.886;8.074;2023-06-22T00:56:50;8.57;;;7.47;;
10894;SDS011;5500;49.886;8.074;2023-06-22T00:59:21;8.90;;;7.80;;
10894;SDS011;5500;49.886;8.074;2023-06-22T01:01:48;8.27;;;7.57;;
10894;SDS011;5500;49.886;8.074;2023-06-22T01:04:16;10.13;;;8.60;;
10894;SDS011;5500;49.886;8.074;2023-06-22T01:06:47;9.10;;;8.30;;
10894;SDS011;5500;49.886;8.074;2023-06-22T01:09:20;8.80;;;7.90;;
10894;SDS011;5500;49.886;8.074;2023-06-22T01:11:57;10.70;;;8.53;;
10894;SDS011;5500;49.886;8.074;2023-06-22T01:14:28;9.30;;;8.37;;
10894;SDS011;5500;49.886;8.074;2023-06-22T01:16:59;8.13;;;7.43;;
10894;SDS011;5500;49.886;8.074;2023-06-22T01:19:33;9.47;;;8.10;;
10894;SDS011;5500;49.886;8.074;2023-06-22T01:22:03;9.23;;;7.60;;
10894;SDS011;5500;49.886;8.074;2023-06-22T01:24:33;8.50;;;7.67;;
10894;SDS011;5500;49.886;8.074;2023-06-22T01:27:09;8.23;;;7.43;;
10894;SDS011;5500;49.886;8.074;2023-06-22T01:29:43;14.87;;;8.30;;
10894;SDS011;5500;49.886;8.074;2023-06-22T01:32:12;8.77;;;7.97;;
10894;SDS011;5500;49.886;8.074;2023-06-22T01:34:40;9.23;;;8.33;;
10894;SDS011;5500;49.886;8.074;2023-06-22T01:37:08;10.13;;;9.10;;
10894;SDS011;5500;49.886;8.074;2023-06-22T01:39:36;10.63;;;8.00;;
10894;SDS011;5500;49.886;8.074;2023-06-22T01:42:04;10.47;;;9.30;;
10894;SDS011;5500;49.886;8.074;2023-06-22T01:44:32;10.10;;;8.30;;
10894;SDS011;5500;49.886;8.074;2023-06-22T01:47:02;9.10;;;8.20;;
10894;SDS011;5500;49.886;8.074;2023-06-22T01:49:30;9.40;;;8.50;;
10894;SDS011;5500;49.886;8.074;2023-06-22T01:51:58;9.50;;;8.57;;
10894;SDS011;5500;49.886;8.074;2023-06-22T01:54:26;8.80;;;8.00;;
10894;SDS011;5500;49.886;8.074;2023-06-22T01:56:56;8.47;;;7.67;;
10894;SDS011;5500;49.886;8.074;2023-06-22T01:59:28;9.17;;;8.37;;
10894;SDS011;5500;49.886;8.074;2023-06-22T02:02:01;8.53;;;7.83;;
10894;SDS011;5500;49.886;8.074;2023-06-22T02:04:36;10.27;;;8.63;;
10894;SDS011;5500;49.886;8.074;2023-06-22T02:07:05;9.37;;;8.57;;
10894;SDS011;5500;49.886;8.074;2023-06-22T02:09:36;9.40;;;7.87;;
10894;SDS011;5500;49.886;8.074;2023-06-22T02:12:07;9.17;;;8.37;;
10894;SDS011;5500;49.886;8.074;2023-06-22T02:14:36;9.13;;;8.37;;
10894;SDS011;5500;49.886;8.074;2023-06-22T02:17:08;11.67;;;8.33;;
10894;SDS011;5500;49.886;8.074;2023-06-22T02:19:41;9.30;;;8.50;;
10894;SDS011;5500;49.886;8.074;2023-06-22T02:22:09;9.80;;;7.77;;
10894;SDS011;5500;49.886;8.074;2023-06-22T02:24:40;8.77;;;7.97;;
10894;SDS011;5500;49.886;8.074;2023-06-22T02:27:08;8.97;;;8.17;;
10894;SDS011;5500;49.886;8.074;2023-06-22T02:29:36;8.20;;;7.50;;
10894;SDS011;5500;49.886;8.074;2023-06-22T02:32:04;8.93;;;7.97;;
10894;SDS011;5500;49.886;8.074;2023-06-22T02:34:34;9.30;;;8.40;;
10894;SDS011;5500;49.886;8.074;2023-06-22T02:37:03;9.30;;;8.40;;
10894;SDS011;5500;49.886;8.074;2023-06-22T02:39:31;9.50;;;8.60;;
10894;SDS011;5500;49.886;8.074;2023-06-22T02:41:58;8.83;;;8.13;;
10894;SDS011;5500;49.886;8.074;2023-06-22T02:44:26;9.73;;;8.83;;
10894;SDS011;5500;49.886;8.074;2023-06-22T02:46:54;9.60;;;8.63;;
10894;SDS011;5500;49.886;8.074;2023-06-22T02:49:23;9.23;;;8.43;;
10894;SDS011;5500;49.886;8.074;2023-06-22T02:51:52;9.17;;;8.33;;
10894;SDS011;5500;49.886;8.074;2023-06-22T02:54:20;9.73;;;8.80;;
10894;SDS011;5500;49.886;8.074;2023-06-22T02:56:47;13.03;;;9.23;;
10894;SDS011;5500;49.886;8.074;2023-06-22T02:59:17;10.17;;;9.23;;
10894;SDS011;5500;49.886;8.074;2023-06-22T03:01:50;11.10;;;8.93;;
10894;SDS011;5500;49.886;8.074;2023-06-22T03:04:17;9.43;;;8.63;;
10894;SDS011;5500;49.886;8.074;2023-06-22T03:06:45;9.67;;;8.73;;
10894;SDS011;5500;49.886;8.074;2023-06-22T03:09:18;8.97;;;8.07;;
10894;SDS011;5500;49.886;8.074;2023-06-22T03:11:46;9.67;;;8.77;;
10894;SDS011;5500;49.886;8.074;2023-06-22T03:14:13;8.97;;;8.17;;
10894;SDS011;5500;49.886;8.074;2023-06-22T03:16:41;9.70;;;8.83;;
10894;SDS011;5500;49.886;8.074;2023-06-22T03:19:09;9.73;;;8.90;;
10894;SDS011;5500;49.886;8.074;2023-06-22T03:21:37;9.83;;;8.40;;
10894;SDS011;5500;49.886;8.074;2023-06-22T03:24:06;9.27;;;8.37;;
10894;SDS011;5500;49.886;8.074;2023-06-22T03:26:35;9.50;;;8.60;;
10894;SDS011;5500;49.886;8.074;2023-06-22T03:29:03;9.67;;;8.63;;
10894;SDS011;5500;49.886;8.074;2023-06-22T03:31:30;8.70;;;7.97;;
10894;SDS011;5500;49.886;8.074;2023-06-22T03:33:58;9.43;;;8.53;;
10894;SDS011;5500;49.886;8.074;2023-06-22T03:36:26;9.97;;;8.93;;
10894;SDS011;5500;49.886;8.074;2023-06-22T03:38:53;13.90;;;8.60;;
10894;SDS011;5500;49.886;8.074;2023-06-22T03:41:21;10.50;;;9.30;;
10894;SDS011;5500;49.886;8.074;2023-06-22T03:43:50;10.00;;;9.00;;
10894;SDS011;5500;49.886;8.074;2023-06-22T03:46:18;10.13;;;9.33;;
10894;SDS011;5500;49.886;8.074;2023-06-22T03:48:46;10.13;;;9.13;;
10894;SDS011;5500;49.886;8.074;2023-06-22T03:51:14;9.70;;;8.70;;
10894;SDS011;5500;49.886;8.074;2023-06-22T03:53:42;9.53;;;8.73;;
10894;SDS011;5500;49.886;8.074;2023-06-22T03:56:09;9.80;;;9.00;;
10894;SDS011;5500;49.886;8.074;2023-06-22T03:58:37;10.70;;;9.47;;
10894;SDS011;5500;49.886;8.074;2023-06-22T04:01:10;10.90;;;9.83;;
10894;SDS011;5500;49.886;8.074;2023-06-22T04:03:38;10.00;;;9.10;;
10894;SDS011;5500;49.886;8.074;2023-06-22T04:06:06;12.03;;;9.00;;
10894;SDS011;5500;49.886;8.074;2023-06-22T04:08:34;10.33;;;9.33;;
10894;SDS011;5500;49.886;8.074;2023-06-22T04:11:02;9.43;;;8.63;;
10894;SDS011;5500;49.886;8.074;2023-06-22T04:13:29;10.03;;;9.03;;
10894;SDS011;5500;49.886;8.074;2023-06-22T04:15:57;10.27;;;9.30;;
10894;SDS011;5500;49.886;8.074;2023-06-22T04:18:28;13.17;;;9.43;;
10894;SDS011;5500;49.886;8.074;2023-06-22T04:20:56;10.50;;;9.50;;
10894;SDS011;5500;49.886;8.074;2023-06-22T04:23:24;11.10;;;10.10;;
10894;SDS011;5500;49.886;8.074;2023-06-22T04:25:51;10.60;;;9.60;;
10894;SDS011;5500;49.886;8.074;2023-06-22T04:28:19;14.80;;;10.80;;
10894;SDS011;5500;49.886;8.074;2023-06-22T04:30:47;11.27;;;10.13;;
10894;SDS011;5500;49.886;8.074;2023-06-22T04:33:15;11.60;;;10.27;;
10894;SDS011;5500;49.886;8.074;2023-06-22T04:35:45;11.50;;;10.37;;
10894;SDS011;5500;49.886;8.074;2023-06-22T04:38:15;12.77;;;9.93;;
10894;SDS011;5500;49.886;8.074;2023-06-22T04:40:42;14.17;;;11.57;;
10894;SDS011;5500;49.886;8.074;2023-06-22T04:43:10;12.03;;;9.97;;
10894;SDS011;5500;49.886;8.074;2023-06-22T04:45:39;11.10;;;10.00;;
10894;SDS011;5500;49.886;8.074;2023-06-22T04:48:07;10.77;;;9.83;;
10894;SDS011;5500;49.886;8.074;2023-06-22T04:50:38;13.00;;;10.57;;
10894;SDS011;5500;49.886;8.074;2023-06-22T04:53:07;11.50;;;10.60;;
10894;SDS011;5500;49.886;8.074;2023-06-22T04:55:35;13.90;;;10.90;;
10894;SDS011;5500;49.886;8.074;2023-06-22T04:58:07;12.17;;;10.97;;
10894;SDS011;5500;49.886;8.074;2023-06-22T05:00:35;11.33;;;10.33;;
10894;SDS011;5500;49.886;8.074;2023-06-22T05:03:03;13.67;;;12.47;;
10894;SDS011;5500;49.886;8.074;2023-06-22T05:05:45;12.30;;;11.10;;
10894;SDS011;5500;49.886;8.074;2023-06-22T05:08:14;13.80;;;12.33;;
10894;SDS011;5500;49.886;8.074;2023-06-22T05:10:42;12.50;;;11.23;;
10894;SDS011;5500;49.886;8.074;2023-06-22T05:13:28;14.03;;;11.63;;
10894;SDS011;5500;49.886;8.074;2023-06-22T05:15:56;11.73;;;10.73;;
10894;SDS011;5500;49.886;8.074;2023-06-22T05:18:27;13.20;;;11.90;;
10894;SDS011;5500;49.886;8.074;2023-06-22T05:20:56;13.60;;;12.30;;
10894;SDS011;5500;49.886;8.074;2023-06-22T05:23:26;13.23;;;11.97;;
10894;SDS011;5500;49.886;8.074;2023-06-22T05:25:53;15.07;;;10.57;;
10894;SDS011;5500;49.886;8.074;2023-06-22T05:28:23;11.83;;;10.60;;
10894;SDS011;5500;49.886;8.074;2023-06-22T05:30:51;12.77;;;11.57;;
10894;SDS011;5500;49.886;8.074;2023-06-22T05:33:19;12.43;;;11.23;;
10894;SDS011;5500;49.886;8.074;2023-06-22T05:35:47;12.43;;;11.10;;
10894;SDS011;5500;49.886;8.074;2023-06-22T05:38:14;12.10;;;10.80;;
10894;SDS011;5500;49.886;8.074;2023-06-22T05:40:43;11.53;;;10.43;;
10894;SDS011;5500;49.886;8.074;2023-06-22T05:43:11;12.10;;;11.00;;
10894;SDS011;5500;49.886;8.074;2023-06-22T05:45:39;16.00;;;10.87;;
10894;SDS011;5500;49.886;8.074;2023-06-22T05:48:06;14.87;;;12.13;;
10894;SDS011;5500;49.886;8.074;2023-06-22T05:50:34;12.90;;;11.37;;
10894;SDS011;5500;49.886;8.074;2023-06-22T05:53:02;14.70;;;11.63;;
10894;SDS011;5500;49.886;8.074;2023-06-22T05:55:29;14.87;;;11.80;;
10894;SDS011;5500;49.886;8.074;2023-06-22T05:58:01;15.60;;;11.47;;
10894;SDS011;5500;49.886;8.074;2023-06-22T06:00:30;14.00;;;12.53;;
10894;SDS011;5500;49.886;8.074;2023-06-22T06:02:58;13.37;;;12.17;;
10894;SDS011;5500;49.886;8.074;2023-06-22T06:05:29;13.90;;;12.33;;
10894;SDS011;5500;49.886;8.074;2023-06-22T06:07:57;14.87;;;12.00;;
10894;SDS011;5500;49.886;8.074;2023-06-22T06:10:25;12.63;;;11.43;;
10894;SDS011;5500;49.886;8.074;2023-06-22T06:12:54;13.53;;;12.00;;
10894;SDS011;5500;49.886;8.074;2023-06-22T06:15:23;14.23;;;12.43;;
10894;SDS011;5500;49.886;8.074;2023-06-22T06:17:51;13.23;;;11.63;;
10894;SDS011;5500;49.886;8.074;2023-06-22T06:20:20;13.47;;;12.17;;
10894;SDS011;5500;49.886;8.074;2023-06-22T06:22:49;13.87;;;11.93;;
10894;SDS011;5500;49.886;8.074;2023-06-22T06:25:17;13.87;;;11.87;;
10894;SDS011;5500;49.886;8.074;2023-06-22T06:27:46;13.27;;;12.00;;
10894;SDS011;5500;49.886;8.074;2023-06-22T06:30:15;13.60;;;12.23;;
10894;SDS011;5500;49.886;8.074;2023-06-22T06:32:45;15.70;;;12.27;;
10894;SDS011;5500;49.886;8.074;2023-06-22T06:35:14;14.13;;;12.10;;
10894;SDS011;5500;49.886;8.074;2023-06-22T06:37:42;12.30;;;11.07;;
10894;SDS011;5500;49.886;8.074;2023-06-22T06:40:11;12.93;;;11.83;;
10894;SDS011;5500;49.886;8.074;2023-06-22T06:42:40;13.63;;;11.90;;
10894;SDS011;5500;49.886;8.074;2023-06-22T06:45:10;16.53;;;12.53;;
10894;SDS011;5500;49.886;8.074;2023-06-22T06:47:39;12.97;;;11.77;;
10894;SDS011;5500;49.886;8.074;2023-06-22T06:50:09;15.63;;;12.73;;
10894;SDS011;5500;49.886;8.074;2023-06-22T06:52:37;13.23;;;11.83;;
10894;SDS011;5500;49.886;8.074;2023-06-22T06:55:06;13.53;;;12.20;;
10894;SDS011;5500;49.886;8.074;2023-06-22T06:57:38;12.20;;;11.00;;
10894;SDS011;5500;49.886;8.074;2023-06-22T07:00:07;12.53;;;11.33;;
10894;SDS011;5500;49.886;8.074;2023-06-22T07:02:38;12.47;;;11.17;;
10894;SDS011;5500;49.886;8.074;2023-06-22T07:05:08;13.20;;;11.63;;
10894;SDS011;5500;49.886;8.074;2023-06-22T07:07:37;11.97;;;10.87;;
10894;SDS011;5500;49.886;8.074;2023-06-22T07:10:05;11.97;;;10.80;;
10894;SDS011;5500;49.886;8.074;2023-06-22T07:12:34;14.23;;;11.43;;
10894;SDS011;5500;49.886;8.074;2023-06-22T07:15:02;12.20;;;10.57;;
10894;SDS011;5500;49.886;8.074;2023-06-22T07:17:30;13.90;;;10.87;;
10894;SDS011;5500;49.886;8.074;2023-06-22T07:19:58;10.70;;;9.80;;
10894;SDS011;5500;49.886;8.074;2023-06-22T07:22:27;10.50;;;9.50;;
10894;SDS011;5500;49.886;8.074;2023-06-22T07:24:55;10.57;;;9.57;;
10894;SDS011;5500;49.886;8.074;2023-06-22T07:27:23;11.50;;;10.47;;
10894;SDS011;5500;49.886;8.074;2023-06-22T07:29:51;11.30;;;10.20;;
10894;SDS011;5500;49.886;8.074;2023-06-22T07:32:19;9.90;;;9.07;;
10894;SDS011;5500;49.886;8.074;2023-06-22T07:34:46;12.93;;;10.37;;
10894;SDS011;5500;49.886;8.074;2023-06-22T07:37:14;11.00;;;9.00;;
10894;SDS011;5500;49.886;8.074;2023-06-22T07:39:43;11.07;;;10.07;;
10894;SDS011;5500;49.886;8.074;2023-06-22T07:42:11;11.67;;;10.47;;
10894;SDS011;5500;49.886;8.074;2023-06-22T07:44:38;11.47;;;10.37;;
10894;SDS011;5500;49.886;8.074;2023-06-22T07:47:06;11.50;;;9.90;;
10894;SDS011;5500;49.886;8.074;2023-06-22T07:49:34;10.60;;;9.50;;
10894;SDS011;5500;49.886;8.074;2023-06-22T07:52:02;11.03;;;10.03;;
10894;SDS011;5500;49.886;8.074;2023-06-22T07:54:32;10.17;;;9.17;;
10894;SDS011;5500;49.886;8.074;2023-06-22T07:57:01;9.93;;;9.03;;
10894;SDS011;5500;49.886;8.074;2023-06-22T07:59:29;11.50;;;9.17;;
10894;SDS011;5500;49.886;8.074;2023-06-22T08:01:56;9.97;;;9.00;;
10894;SDS011;5500;49.886;8.074;2023-06-22T08:04:25;10.97;;;9.83;;
10894;SDS011;5500;49.886;8.074;2023-06-22T08:06:53;10.50;;;9.60;;
10894;SDS011;5500;49.886;8.074;2023-06-22T08:09:21;10.87;;;8.90;;
10894;SDS011;5500;49.886;8.074;2023-06-22T08:11:49;10.80;;;9.70;;
10894;SDS011;5500;49.886;8.074;2023-06-22T08:14:18;9.80;;;8.77;;
10894;SDS011;5500;49.886;8.074;2023-06-22T08:16:45;12.03;;;9.77;;
10894;SDS011;5500;49.886;8.074;2023-06-22T08:19:13;11.30;;;8.30;;
10894;SDS011;5500;49.886;8.074;2023-06-22T08:21:41;9.63;;;8.57;;
10894;SDS011;5500;49.886;8.074;2023-06-22T08:24:08;11.07;;;9.60;;
10894;SDS011;5500;49.886;8.074;2023-06-22T08:26:36;10.37;;;9.33;;
10894;SDS011;5500;49.886;8.074;2023-06-22T08:29:04;10.90;;;9.80;;
10894;SDS011;5500;49.886;8.074;2023-06-22T08:31:33;10.85;;;9.75;;
10894;SDS011;5500;49.886;8.074;2023-06-22T08:34:01;11.32;;;9.73;;
10894;SDS011;5500;49.886;8.074;2023-06-22T08:36:28;10.55;;;8.57;;
10894;SDS011;5500;49.886;8.074;2023-06-22T08:38:59;10.55;;;9.30;;
10894;SDS011;5500;49.886;8.074;2023-06-22T08:41:27;10.85;;;9.80;;
10894;SDS011;5500;49.886;8.074;2023-06-22T08:43:55;10.70;;;9.70;;
10894;SDS011;5500;49.886;8.074;2023-06-22T08:46:23;9.70;;;8.82;;
10894;SDS011;5500;49.886;8.074;2023-06-22T08:48:58;9.80;;;8.90;;
10894;SDS011;5500;49.886;8.074;2023-06-22T08:51:26;9.70;;;8.80;;
10894;SDS011;5500;49.886;8.074;2023-06-22T08:53:55;10.25;;;9.13;;
10894;SDS011;5500;49.886;8.074;2023-06-22T08:56:22;9.88;;;8.98;;
10894;SDS011;5500;49.886;8.074;2023-06-22T08:58:50;11.30;;;9.48;;
10894;SDS011;5500;49.886;8.074;2023-06-22T09:01:18;10.00;;;9.13;;
10894;SDS011;5500;49.886;8.074;2023-06-22T09:03:46;10.68;;;9.65;;
10894;SDS011;5500;49.886;8.074;2023-06-22T09:06:22;10.07;;;9.18;;
10894;SDS011;5500;49.886;8.074;2023-06-22T09:08:49;9.88;;;8.98;;
10894;SDS011;5500;49.886;8.074;2023-06-22T09:11:17;10.50;;;9.45;;
10894;SDS011;5500;49.886;8.074;2023-06-22T09:13:45;10.43;;;9.45;;
10894;SDS011;5500;49.886;8.074;2023-06-22T09:16:13;11.23;;;9.32;;
10894;SDS011;5500;49.886;8.074;2023-06-22T09:18:41;11.13;;;10.13;;
10894;SDS011;5500;49.886;8.074;2023-06-22T09:21:08;9.25;;;8.45;;
10894;SDS011;5500;49.886;8.074;2023-06-22T09:23:38;9.25;;;8.35;;
10894;SDS011;5500;49.886;8.074;2023-06-22T09:26:05;8.90;;;7.85;;
10894;SDS011;5500;49.886;8.074;2023-06-22T09:28:33;8.57;;;7.75;;
10894;SDS011;5500;49.886;8.074;2023-06-22T09:31:01;10.30;;;8.45;;
10894;SDS011;5500;49.886;8.074;2023-06-22T09:33:29;13.63;;;9.05;;
10894;SDS011;5500;49.886;8.074;2023-06-22T09:35:57;9.55;;;8.65;;
10894;SDS011;5500;49.886;8.074;2023-06-22T09:38:24;9.45;;;8.45;;
10894;SDS011;5500;49.886;8.074;2023-06-22T09:40:53;8.68;;;7.88;;
10894;SDS011;5500;49.886;8.074;2023-06-22T09:43:21;11.18;;;8.45;;
10894;SDS011;5500;49.886;8.074;2023-06-22T09:45:48;9.82;;;8.50;;
10894;SDS011;5500;49.886;8.074;2023-06-22T09:48:17;9.27;;;8.43;;
10894;SDS011;5500;49.886;8.074;2023-06-22T09:50:45;9.95;;;8.93;;
10894;SDS011;5500;49.886;8.074;2023-06-22T09:53:12;9.43;;;8.40;;
10894;SDS011;5500;49.886;8.074;2023-06-22T09:55:40;9.88;;;8.77;;
10894;SDS011;5500;49.886;8.074;2023-06-22T09:58:09;8.60;;;7.90;;
10894;SDS011;5500;49.886;8.074;2023-06-22T10:00:37;8.55;;;7.85;;
10894;SDS011;5500;49.886;8.074;2023-06-22T10:03:04;9.15;;;8.27;;
10894;SDS011;5500;49.886;8.074;2023-06-22T10:05:32;8.32;;;7.63;;
10894;SDS011;5500;49.886;8.074;2023-06-22T10:08:00;15.07;;;8.52;;
10894;SDS011;5500;49.886;8.074;2023-06-22T10:10:28;9.75;;;8.75;;
10894;SDS011;5500;49.886;8.074;2023-06-22T10:12:56;10.35;;;8.23;;
10894;SDS011;5500;49.886;8.074;2023-06-22T10:15:26;8.60;;;7.80;;
10894;SDS011;5500;49.886;8.074;2023-06-22T10:17:54;8.60;;;7.70;;
10894;SDS011;5500;49.886;8.074;2023-06-22T10:20:22;8.65;;;7.85;;
10894;SDS011;5500;49.886;8.074;2023-06-22T10:22:50;9.23;;;8.10;;
10894;SDS011;5500;49.886;8.074;2023-06-22T10:25:17;9.98;;;6.97;;
10894;SDS011;5500;49.886;8.074;2023-06-22T10:27:45;8.38;;;7.53;;
10894;SDS011;5500;49.886;8.074;2023-06-22T10:30:13;9.38;;;7.53;;
10894;SDS011;5500;49.886;8.074;2023-06-22T10:32:42;8.43;;;6.45;;
10894;SDS011;5500;49.886;8.074;2023-06-22T10:35:10;8.05;;;7.15;;
10894;SDS011;5500;49.886;8.074;2023-06-22T10:37:40;8.90;;;7.68;;
10894;SDS011;5500;49.886;8.074;2023-06-22T10:40:09;7.95;;;7.15;;
10894;SDS011;5500;49.886;8.074;2023-06-22T10:42:38;9.43;;;6.88;;
10894;SDS011;5500;49.886;8.074;2023-06-22T10:45:06;7.75;;;7.00;;
10894;SDS011;5500;49.886;8.074;2023-06-22T10:47:35;8.52;;;7.28;;
10894;SDS011;5500;49.886;8.074;2023-06-22T10:50:05;8.35;;;6.63;;
10894;SDS011;5500;49.886;8.074;2023-06-22T10:52:33;7.80;;;6.65;;
10894;SDS011;5500;49.886;8.074;2023-06-22T10:55:01;8.82;;;6.50;;
10894;SDS011;5500;49.886;8.074;2023-06-22T10:57:28;9.48;;;7.03;;
10894;SDS011;5500;49.886;8.074;2023-06-22T10:59:56;7.78;;;6.88;;
10894;SDS011;5500;49.886;8.074;2023-06-22T11:02:24;8.20;;;7.38;;
10894;SDS011;5500;49.886;8.074;2023-06-22T11:04:54;7.43;;;6.65;;
10894;SDS011;5500;49.886;8.074;2023-06-22T11:07:23;8.13;;;6.95;;
10894;SDS011;5500;49.886;8.074;2023-06-22T11:09:53;7.03;;;6.40;;
10894;SDS011;5500;49.886;8.074;2023-06-22T11:12:20;7.88;;;6.28;;
10894;SDS011;5500;49.886;8.074;2023-06-22T11:14:48;9.35;;;6.63;;
10894;SDS011;5500;49.886;8.074;2023-06-22T11:17:17;8.85;;;6.93;;
10894;SDS011;5500;49.886;8.074;2023-06-22T11:19:45;8.25;;;7.35;;
10894;SDS011;5500;49.886;8.074;2023-06-22T11:22:13;7.60;;;6.85;;
10894;SDS011;5500;49.886;8.074;2023-06-22T11:24:42;14.43;;;6.93;;
10894;SDS011;5500;49.886;8.074;2023-06-22T11:27:10;7.43;;;6.72;;
10894;SDS011;5500;49.886;8.074;2023-06-22T11:29:37;7.50;;;6.40;;
10894;SDS011;5500;49.886;8.074;2023-06-22T11:32:06;11.68;;;6.68;;
10894;SDS011;5500;49.886;8.074;2023-06-22T11:34:36;8.77;;;6.60;;
10894;SDS011;5500;49.886;8.074;2023-06-22T11:37:04;7.43;;;6.72;;
10894;SDS011;5500;49.886;8.074;2023-06-22T11:39:32;7.85;;;6.75;;
10894;SDS011;5500;49.886;8.074;2023-06-22T11:42:09;7.65;;;6.88;;
10894;SDS011;5500;49.886;8.074;2023-06-22T11:44:37;9.85;;;6.60;;
10894;SDS011;5500;49.886;8.074;2023-06-22T11:47:05;10.57;;;6.63;;
10894;SDS011;5500;49.886;8.074;2023-06-22T11:49:33;7.03;;;6.43;;
10894;SDS011;5500;49.886;8.074;2023-06-22T11:52:00;9.63;;;6.70;;
10894;SDS011;5500;49.886;8.074;2023-06-22T11:54:28;8.82;;;7.05;;
10894;SDS011;5500;49.886;8.074;2023-06-22T11:56:56;7.93;;;7.13;;
10894;SDS011;5500;49.886;8.074;2023-06-22T11:59:25;12.45;;;6.93;;
10894;SDS011;5500;49.886;8.074;2023-06-22T12:01:52;9.85;;;6.75;;
10894;SDS011;5500;49.886;8.074;2023-06-22T12:04:20;7.70;;;6.20;;
10894;SDS011;5500;49.886;8.074;2023-06-22T12:06:48;9.35;;;6.28;;
10894;SDS011;5500;49.886;8.074;2023-06-22T12:09:16;11.95;;;6.68;;
10894;SDS011;5500;49.886;8.074;2023-06-22T12:11:43;11.80;;;6.85;;
10894;SDS011;5500;49.886;8.074;2023-06-22T12:14:11;8.95;;;6.72;;
10894;SDS011;5500;49.886;8.074;2023-06-22T12:16:40;8.05;;;6.75;;
10894;SDS011;5500;49.886;8.074;2023-06-22T12:19:10;8.38;;;7.25;;
10894;SDS011;5500;49.886;8.074;2023-06-22T12:21:38;7.63;;;6.90;;
10894;SDS011;5500;49.886;8.074;2023-06-22T12:24:07;12.52;;;7.32;;
10894;SDS011;5500;49.886;8.074;2023-06-22T12:26:34;7.85;;;6.00;;
10894;SDS011;5500;49.886;8.074;2023-06-22T12:29:02;9.27;;;6.20;;
10894;SDS011;5500;49.886;8.074;2023-06-22T12:31:30;8.05;;;6.07;;
10894;SDS011;5500;49.886;8.074;2023-06-22T12:33:59;11.13;;;6.47;;
10894;SDS011;5500;49.886;8.074;2023-06-22T12:36:27;12.77;;;6.40;;
10894;SDS011;5500;49.886;8.074;2023-06-22T12:38:54;9.88;;;6.55;;
10894;SDS011;5500;49.886;8.074;2023-06-22T12:41:22;7.00;;;6.22;;
10894;SDS011;5500;49.886;8.074;2023-06-22T12:43:49;7.57;;;6.38;;
10894;SDS011;5500;49.886;8.074;2023-06-22T12:46:17;9.15;;;6.82;;
10894;SDS011;5500;49.886;8.074;2023-06-22T12:48:45;8.02;;;6.38;;
10894;SDS011;5500;49.886;8.074;2023-06-22T12:51:19;8.43;;;6.70;;
10894;SDS011;5500;49.886;8.074;2023-06-22T12:53:47;6.28;;;5.68;;
10894;SDS011;5500;49.886;8.074;2023-06-22T12:56:15;9.50;;;6.47;;
10894;SDS011;5500;49.886;8.074;2023-06-22T12:58:43;8.82;;;5.80;;
10894;SDS011;5500;49.886;8.074;2023-06-22T13:01:10;8.57;;;6.05;;
10894;SDS011;5500;49.886;8.074;2023-06-22T13:03:38;9.50;;;5.63;;
10894;SDS011;5500;49.886;8.074;2023-06-22T13:06:06;8.88;;;5.45;;
10894;SDS011;5500;49.886;8.074;2023-06-22T13:08:35;7.68;;;5.65;;
10894;SDS011;5500;49.886;8.074;2023-06-22T13:11:23;9.32;;;5.10;;
10894;SDS011;5500;49.886;8.074;2023-06-22T13:13:50;8.25;;;4.97;;
10894;SDS011;5500;49.886;8.074;2023-06-22T13:16:18;12.02;;;5.28;;
10894;SDS011;5500;49.886;8.074;2023-06-22T13:18:46;11.30;;;5.38;;
10894;SDS011;5500;49.886;8.074;2023-06-22T13:21:13;11.25;;;5.80;;
10894;SDS011;5500;49.886;8.074;2023-06-22T13:23:43;10.35;;;5.47;;
10894;SDS011;5500;49.886;8.074;2023-06-22T13:26:10;8.85;;;4.65;;
10894;SDS011;5500;49.886;8.074;2023-06-22T13:28:38;9.55;;;5.40;;
10894;SDS011;5500;49.886;8.074;2023-06-22T13:31:06;6.97;;;5.30;;
10894;SDS011;5500;49.886;8.074;2023-06-22T13:33:37;11.57;;;5.90;;
10894;SDS011;5500;49.886;8.074;2023-06-22T13:36:06;9.73;;;5.25;;
10894;SDS011;5500;49.886;8.074;2023-06-22T13:38:35;13.25;;;4.82;;
10894;SDS011;5500;49.886;8.074;2023-06-22T13:41:06;10.90;;;5.90;;
10894;SDS011;5500;49.886;8.074;2023-06-22T13:43:33;8.00;;;5.20;;
10894;SDS011;5500;49.886;8.074;2023-06-22T13:46:01;8.95;;;5.10;;
10894;SDS011;5500;49.886;8.074;2023-06-22T13:48:29;13.20;;;5.90;;
10894;SDS011;5500;49.886;8.074;2023-06-22T13:50:56;11.30;;;5.93;;
10894;SDS011;5500;49.886;8.074;2023-06-22T13:53:24;11.85;;;5.43;;
10894;SDS011;5500;49.886;8.074;2023-06-22T13:55:52;11.30;;;5.40;;
10894;SDS011;5500;49.886;8.074;2023-06-22T13:58:21;10.65;;;5.40;;
10894;SDS011;5500;49.886;8.074;2023-06-22T14:00:49;9.32;;;5.47;;
10894;SDS011;5500;49.886;8.074;2023-06-22T14:03:19;9.90;;;5.60;;
10894;SDS011;5500;49.886;8.074;2023-06-22T14:05:47;8.85;;;7.07;;
10894;SDS011;5500;49.886;8.074;2023-06-22T14:08:15;8.48;;;5.57;;
10894;SDS011;5500;49.886;8.074;2023-06-22T14:11:02;9.65;;;5.45;;
10894;SDS011;5500;49.886;8.074;2023-06-22T14:13:31;10.13;;;5.70;;
10894;SDS011;5500;49.886;8.074;2023-06-22T14:15:59;12.15;;;4.90;;
10894;SDS011;5500;49.886;8.074;2023-06-22T14:18:27;14.18;;;5.07;;
10894;SDS011;5500;49.886;8.074;2023-06-22T14:20:55;10.77;;;4.90;;
10894;SDS011;5500;49.886;8.074;2023-06-22T14:23:22;13.43;;;5.03;;
10894;SDS011;5500;49.886;8.074;2023-06-22T14:25:50;9.82;;;4.50;;
10894;SDS011;5500;49.886;8.074;2023-06-22T14:28:18;13.65;;;4.57;;
10894;SDS011;5500;49.886;8.074;2023-06-22T14:30:47;16.70;;;5.10;;
10894;SDS011;5500;49.886;8.074;2023-06-22T14:33:15;11.38;;;4.90;;
10894;SDS011;5500;49.886;8.074;2023-06-22T14:35:42;11.40;;;4.57;;
10894;SDS011;5500;49.886;8.074;2023-06-22T14:38:10;20.88;;;5.78;;
10894;SDS011;5500;49.886;8.074;2023-06-22T14:40:38;13.23;;;5.38;;
10894;SDS011;5500;49.886;8.074;2023-06-22T14:43:25;11.23;;;4.90;;
10894;SDS011;5500;49.886;8.074;2023-06-22T14:45:54;12.07;;;5.00;;
10894;SDS011;5500;49.886;8.074;2023-06-22T14:48:22;12.88;;;5.15;;
10894;SDS011;5500;49.886;8.074;2023-06-22T14:50:50;11.02;;;5.32;;
10894;SDS011;5500;49.886;8.074;2023-06-22T14:53:18;13.68;;;5.53;;
10894;SDS011;5500;49.886;8.074;2023-06-22T14:55:45;11.27;;;5.50;;
10894;SDS011;5500;49.886;8.074;2023-06-22T14:58:13;18.75;;;5.80;;
10894;SDS011;5500;49.886;8.074;2023-06-22T15:00:41;17.00;;;5.70;;